Time;durP1;ratioP1;P1;durP2;ratioP2;P2;SDS_P1;SDS_P2;PMS_P1;PMS_P2;Temp;Humidity;BMP_temperature;BMP_pressure;BME280_temperature;BME280_humidity;BME280_pressure;Samples;Min_cycle;Max_cycle;Signal;HPM_P1;HPM_P2
2021/12/07 00:01:25;;;;;;;36.28;18.15;;;;;;;-0.96;100.00;100223.22;4878666;29;20402;-90
2021/12/07 00:03:52;;;;;;;37.13;19.02;;;;;;;-0.92;100.00;100235.22;4879133;29;20108;-90
2021/12/07 00:06:20;;;;;;;36.70;19.98;;;;;;;-0.92;100.00;100234.38;4880045;29;20036;-90
2021/12/07 00:08:54;;;;;;;40.13;20.83;;;;;;;-0.45;100.00;100308.63;4878718;29;20092;-90
2021/12/07 00:11:23;;;;;;;42.88;22.58;;;;;;;-0.64;100.00;100271.53;4879537;29;20398;-90
2021/12/07 00:13:49;;;;;;;45.55;23.63;;;;;;;-0.43;100.00;100303.16;4878311;29;20049;-90
2021/12/07 00:16:19;;;;;;;42.25;22.30;;;;;;;-0.54;100.00;100277.59;4878798;29;20458;-90
2021/12/07 00:18:46;;;;;;;43.75;23.80;;;;;;;-0.50;100.00;100286.97;4878648;29;20131;-90
2021/12/07 00:21:15;;;;;;;40.80;21.05;;;;;;;-0.69;100.00;100260.50;4878436;29;20033;-90
2021/12/07 00:23:47;;;;;;;48.47;23.17;;;;;;;-0.47;100.00;100280.47;4893798;29;20165;-89
2021/12/07 00:26:16;;;;;;;50.40;26.10;;;;;;;-0.44;100.00;100285.50;4878505;29;20038;-91
2021/12/07 00:28:42;;;;;;;50.70;26.67;;;;;;;-0.51;100.00;100260.47;4878297;29;20032;-90
2021/12/07 00:31:14;;;;;;;52.50;27.52;;;;;;;-0.55;100.00;100252.78;4878406;29;20177;-90
2021/12/07 00:33:52;;;;;;;51.65;27.15;;;;;;;-0.47;100.00;100264.47;4878645;29;20057;-90
2021/12/07 00:36:18;;;;;;;61.25;31.27;;;;;;;-0.34;100.00;100269.38;4893794;29;20041;-90
2021/12/07 00:38:44;;;;;;;55.92;28.63;;;;;;;0.11;100.00;100348.28;4877850;29;20048;-89
2021/12/07 00:41:10;;;;;;;62.60;30.30;;;;;;;-0.25;100.00;100282.59;4878040;29;20037;-90
2021/12/07 00:43:36;;;;;;;65.38;32.60;;;;;;;0.58;100.00;100400.38;4877996;29;20162;-90
2021/12/07 00:46:04;;;;;;;64.57;30.83;;;;;;;-0.07;100.00;100290.53;4878114;29;20065;-90
2021/12/07 00:48:33;;;;;;;69.35;31.17;;;;;;;-0.02;100.00;100292.69;4878143;29;20584;-89
2021/12/07 00:51:01;;;;;;;72.90;32.70;;;;;;;0.04;100.00;100277.91;4878051;29;20060;-90
2021/12/07 00:53:27;;;;;;;70.82;32.13;;;;;;;0.47;100.00;100342.75;4879202;29;20410;-90
2021/12/07 00:55:56;;;;;;;71.57;33.75;;;;;;;0.10;100.00;100271.91;4862579;29;20045;-89
2021/12/07 00:58:25;;;;;;;75.68;32.40;;;;;;;0.28;100.00;100291.34;4877613;29;20398;-90
2021/12/07 01:01:03;;;;;;;72.93;31.10;;;;;;;0.47;100.00;100295.56;4877753;29;20037;-90
2021/12/07 01:03:29;;;;;;;77.80;32.10;;;;;;;1.10;100.00;100386.81;4878995;29;20113;-90
2021/12/07 01:06:14;;;;;;;76.57;32.85;;;;;;;1.39;100.00;100422.94;4877832;29;20045;-90
2021/12/07 01:24:56;;;;;;;64.32;28.23;;;;;;;1.12;100.00;100373.28;4894933;29;20494;-89
2021/12/07 01:27:22;;;;;;;63.95;28.55;;;;;;;1.49;100.00;100441.47;4881217;29;20025;-90
2021/12/07 01:33:00;;;;;;;50.38;25.75;;;;;;;1.31;100.00;100406.88;4882044;29;20144;-90
2021/12/07 01:49:38;;;;;;;51.33;19.58;;;;;;;1.64;100.00;100458.53;4882782;29;20096;-90
2021/12/07 02:01:06;;;;;;;48.53;16.15;;;;;;;2.06;100.00;100510.19;4901304;29;20040;-90
2021/12/07 02:03:32;;;;;;;43.42;16.23;;;;;;;1.49;100.00;100431.63;4884638;29;20045;-90
2021/12/07 02:06:01;;;;;;;42.88;15.20;;;;;;;1.39;100.00;100415.75;4905844;29;20032;-89
2021/12/07 02:08:30;;;;;;;46.47;14.55;;;;;;;1.36;100.00;100408.06;4913300;29;20033;-90
2021/12/07 02:10:59;;;;;;;43.50;13.45;;;;;;;1.33;100.00;100411.06;4896665;29;20037;-90
2021/12/07 02:15:57;;;;;;;39.55;12.27;;;;;;;1.71;100.00;100485.44;4911600;29;20055;-90
2021/12/07 02:18:23;;;;;;;41.40;12.13;;;;;;;1.66;100.00;100466.41;4912613;29;20060;-90
2021/12/07 02:20:52;;;;;;;33.50;10.68;;;;;;;1.41;100.00;100436.97;4912054;29;20533;-90
2021/12/07 02:23:17;;;;;;;34.50;9.45;;;;;;;2.10;100.00;100549.84;4893584;29;20064;-90
2021/12/07 02:25:43;;;;;;;40.08;9.65;;;;;;;1.44;100.00;100450.00;4890489;29;20032;-90
2021/12/07 02:28:14;;;;;;;38.20;9.40;;;;;;;1.49;100.00;100466.38;4913970;29;20032;-90
2021/12/07 02:30:41;;;;;;;30.48;8.68;;;;;;;2.12;100.00;100563.06;4881498;29;20406;-91
2021/12/07 02:33:10;;;;;;;33.15;8.02;;;;;;;1.47;100.00;100454.19;4894739;29;20085;-90
2021/12/07 02:35:39;;;;;;;31.05;7.78;;;;;;;1.68;100.00;100497.34;4879700;29;20112;-91
2021/12/07 02:38:05;;;;;;;36.47;7.63;;;;;;;1.47;100.00;100475.56;4894340;29;20363;-90
2021/12/07 02:40:32;;;;;;;36.47;7.35;;;;;;;1.81;100.00;100526.25;4893936;29;20039;-90
2021/12/07 02:42:59;;;;;;;30.33;6.70;;;;;;;1.45;100.00;100470.38;4893638;29;20056;-90
2021/12/07 02:45:24;;;;;;;28.63;7.03;;;;;;;2.06;100.00;100579.78;4889556;29;20032;-90
2021/12/07 02:47:53;;;;;;;26.58;5.95;;;;;;;1.25;100.00;100455.66;4883373;29;20040;-90
2021/12/07 02:50:24;;;;;;;27.38;6.47;;;;;;;1.69;100.00;100532.94;4884027;29;20083;-90
2021/12/07 02:52:52;;;;;;;34.67;6.85;;;;;;;1.35;100.00;100493.75;4870908;29;20060;-90
2021/12/07 02:55:18;;;;;;;28.98;6.10;;;;;;;1.27;100.00;100478.56;4869420;29;20036;-89
2021/12/07 02:57:44;;;;;;;33.63;6.55;;;;;;;1.23;100.00;100485.22;4883952;29;20028;-89
2021/12/07 03:00:17;;;;;;;31.95;6.20;;;;;;;1.34;100.00;100510.78;4882745;29;20044;-90
2021/12/07 03:03:00;;;;;;;30.52;6.32;;;;;;;1.73;100.00;100579.75;4882993;29;20024;-90
2021/12/07 03:27:54;;;;;;;28.92;5.88;;;;;;;1.06;100.00;100524.41;4900004;29;20096;-91
2021/12/07 03:30:29;;;;;;;30.08;5.70;;;;;;;1.00;100.00;100523.19;4867715;29;20450;-90
2021/12/07 03:33:00;;;;;;;35.28;6.13;;;;;;;1.44;100.00;100599.72;4882766;29;20037;-90
2021/12/07 03:35:26;;;;;;;32.42;5.70;;;;;;;1.44;100.00;100605.06;4883093;29;20434;-91
2021/12/07 03:37:52;;;;;;;29.48;6.15;;;;;;;1.68;100.00;100657.81;4882079;29;20025;-91
2021/12/07 03:40:28;;;;;;;29.58;5.70;;;;;;;1.11;100.00;100578.22;4882665;29;20029;-91
2021/12/07 03:42:53;;;;;;;34.13;6.10;;;;;;;1.00;100.00;100559.78;4882349;29;20088;-91
2021/12/07 03:45:19;;;;;;;33.10;6.10;;;;;;;1.05;100.00;100569.00;4867417;29;20036;-91
2021/12/07 03:47:45;;;;;;;37.50;6.55;;;;;;;0.93;100.00;100548.91;4882353;29;20028;-91
2021/12/07 03:50:13;;;;;;;30.70;5.93;;;;;;;1.36;100.00;100629.09;4866687;29;20053;-91
2021/12/07 03:52:38;;;;;;;26.55;5.50;;;;;;;1.58;100.00;100657.94;4881806;29;20032;-90
2021/12/07 03:55:06;;;;;;;28.10;5.75;;;;;;;1.23;100.00;100600.97;4881783;29;20458;-90
2021/12/07 03:57:35;;;;;;;39.72;5.75;;;;;;;1.59;100.00;100656.09;4898775;29;20500;-90
2021/12/07 04:00:01;;;;;;;29.00;5.43;;;;;;;1.57;100.00;100653.56;4898778;29;20470;-90
2021/12/07 04:02:27;;;;;;;30.27;6.30;;;;;;;1.70;100.00;100674.53;4881609;29;20467;-90
2021/12/07 04:04:59;;;;;;;33.05;6.07;;;;;;;1.52;100.00;100631.84;4881814;29;20040;-90
2021/12/07 04:07:25;;;;;;;29.35;5.35;;;;;;;1.26;100.00;100590.97;4898847;29;20044;-90
2021/12/07 04:09:51;;;;;;;35.25;5.35;;;;;;;1.05;100.00;100565.50;4881375;29;20391;-90
2021/12/07 04:12:19;;;;;;;32.47;5.40;;;;;;;0.88;100.00;100546.69;4882099;29;20044;-90
2021/12/07 04:14:45;;;;;;;32.42;5.95;;;;;;;1.54;100.00;100663.78;4898375;29;20513;-90
2021/12/07 04:17:10;;;;;;;30.05;5.80;;;;;;;1.12;100.00;100606.63;4850858;29;20040;-90
2021/12/07 04:19:36;;;;;;;20.90;5.13;;;;;;;1.06;100.00;100604.56;4881572;29;20497;-91
2021/12/07 04:22:02;;;;;;;31.02;5.70;;;;;;;1.56;100.00;100685.81;4881604;29;20029;-91
2021/12/07 04:24:31;;;;;;;29.75;5.55;;;;;;;0.84;100.00;100580.09;4866435;29;20127;-91
2021/12/07 04:26:59;;;;;;;29.50;5.40;;;;;;;0.93;100.00;100574.78;4880769;29;20490;-89
2021/12/07 04:29:28;;;;;;;29.27;5.07;;;;;;;1.64;100.00;100687.69;4880851;29;20525;-90
2021/12/07 04:31:53;;;;;;;24.10;4.72;;;;;;;1.23;100.00;100613.50;4897837;29;20135;-89
2021/12/07 04:34:18;;;;;;;28.02;5.15;;;;;;;1.53;100.00;100662.91;4865830;29;20207;-89
2021/12/07 04:36:44;;;;;;;27.92;5.43;;;;;;;1.47;100.00;100642.16;4881160;29;20439;-89
2021/12/07 04:39:09;;;;;;;28.80;5.30;;;;;;;1.09;100.00;100585.53;4897791;29;20538;-90
2021/12/07 04:41:35;;;;;;;31.55;4.93;;;;;;;1.07;100.00;100590.22;4880793;29;20033;-90
2021/12/07 04:44:04;;;;;;;26.58;4.93;;;;;;;1.02;100.00;100587.19;4880600;29;20029;-90
2021/12/07 04:46:39;;;;;;;24.45;4.97;;;;;;;1.21;100.00;100635.06;4880997;29;20040;-90
2021/12/07 05:00:21;;;;;;;23.60;4.63;;;;;;;1.48;100.00;100677.78;4901593;29;20407;-91
2021/12/07 05:02:54;;;;;;;26.67;5.10;;;;;;;0.93;100.00;100590.78;4901876;29;20064;-91
2021/12/07 05:05:22;;;;;;;32.15;4.63;;;;;;;1.30;100.00;100675.16;4884900;29;20035;-91
2021/12/07 05:07:52;;;;;;;22.35;4.20;;;;;;;1.16;100.00;100660.56;4884914;29;20032;-91
2021/12/07 05:10:31;;;;;;;29.35;5.15;;;;;;;0.81;100.00;100616.94;4885190;29;20056;-91
2021/12/07 05:18:51;;;;;;;24.90;5.03;;;;;;;1.28;100.00;100718.09;4901405;29;20040;-91
2021/12/07 05:24:04;;;;;;;28.58;5.43;;;;;;;1.12;100.00;100723.34;4901761;29;20044;-90
2021/12/07 05:38:03;;;;;;;24.52;7.72;;;;;;;0.13;100.00;100666.44;4901238;29;20061;-91
2021/12/07 05:40:35;;;;;;;35.00;10.02;;;;;;;0.86;100.00;100769.59;4870356;29;20052;-90
2021/12/07 05:43:03;;;;;;;31.30;9.20;;;;;;;0.60;100.00;100743.63;4884193;29;20039;-90
2021/12/07 05:45:35;;;;;;;31.77;10.40;;;;;;;0.17;100.00;100690.00;4884071;29;20281;-90
2021/12/07 05:48:04;;;;;;;37.47;11.02;;;;;;;0.26;100.00;100709.59;4883930;29;20035;-90
2021/12/07 05:50:32;;;;;;;37.35;11.82;;;;;;;0.04;100.00;100678.84;4900274;29;20060;-90
2021/12/07 05:52:59;;;;;;;40.22;12.25;;;;;;;0.05;100.00;100699.22;4883243;29;20105;-88
2021/12/07 05:55:28;;;;;;;45.05;12.15;;;;;;;0.66;100.00;100791.09;4883669;29;20064;-90
2021/12/07 05:57:55;;;;;;;40.72;12.15;;;;;;;0.04;100.00;100691.38;4883960;29;20063;-90
2021/12/07 06:00:32;;;;;;;40.80;12.20;;;;;;;0.57;100.00;100785.84;4883621;29;20032;-89
2021/12/07 06:03:07;;;;;;;41.55;12.32;;;;;;;-0.03;100.00;100697.31;4883195;29;20032;-90
2021/12/07 06:05:34;;;;;;;42.17;12.10;;;;;;;0.24;100.00;100742.78;4884650;29;20025;-92
2021/12/07 06:08:02;;;;;;;39.65;12.73;;;;;;;-0.07;100.00;100695.09;4884691;29;20033;-93
2021/12/07 06:10:51;;;;;;;39.28;11.52;;;;;;;-0.02;100.00;100708.81;4883626;29;20073;-93
2021/12/07 06:13:17;;;;;;;46.05;12.50;;;;;;;-0.09;100.00;100694.38;4884224;29;20065;-91
2021/12/07 06:16:04;;;;;;;45.00;12.23;;;;;;;-0.13;100.00;100701.88;4884801;29;20036;-93
2021/12/07 06:18:49;;;;;;;37.63;11.50;;;;;;;-0.17;100.00;100694.31;4884435;29;20434;-95
2021/12/07 06:21:19;;;;;;;50.38;12.15;;;;;;;-0.25;100.00;100676.38;4884366;29;20043;-91
2021/12/07 06:23:49;;;;;;;44.15;13.05;;;;;;;-0.23;100.00;100690.41;4869482;29;20056;-93
2021/12/07 06:26:22;;;;;;;46.90;12.50;;;;;;;-0.14;100.00;100707.34;4884366;29;20119;-92
2021/12/07 06:28:55;;;;;;;42.35;12.77;;;;;;;-0.22;100.00;100695.59;4872232;29;20040;-90
2021/12/07 06:31:23;;;;;;;45.97;12.15;;;;;;;0.60;100.00;100815.72;4886966;29;20072;-89
2021/12/07 06:33:49;;;;;;;46.20;13.32;;;;;;;0.29;100.00;100757.34;4883247;29;20561;-88
2021/12/07 06:36:18;;;;;;;44.08;14.38;;;;;;;0.50;100.00;100789.13;4882736;29;20047;-90
2021/12/07 06:38:45;;;;;;;46.67;13.65;;;;;;;0.76;100.00;100830.25;4883029;29;20029;-91
2021/12/07 06:41:10;;;;;;;44.45;12.93;;;;;;;0.56;100.00;100794.81;4882969;29;20032;-89
2021/12/07 06:43:39;;;;;;;40.92;13.50;;;;;;;0.23;100.00;100735.78;4883056;29;20096;-91
2021/12/07 06:49:42;;;;;;;49.03;12.68;;;;;;;-0.10;100.00;100690.91;4900512;29;20103;-94
2021/12/07 06:52:16;;;;;;;38.85;13.02;;;;;;;-0.15;100.00;100701.16;4883228;29;20418;-90
2021/12/07 06:54:42;;;;;;;;;;;;;;;0.62;100.00;100823.59;4883377;29;20068;-91
2021/12/07 06:57:07;;;;;;;38.83;11.68;;;;;;;-0.14;100.00;100715.34;4883444;29;19915;-92
2021/12/07 06:59:33;;;;;;;43.33;12.02;;;;;;;0.56;100.00;100816.19;4868105;29;20028;-92
2021/12/07 07:01:58;;;;;;;40.40;12.80;;;;;;;-0.11;100.00;100715.88;4868000;29;20035;-91
2021/12/07 07:04:24;;;;;;;48.38;14.43;;;;;;;0.16;100.00;100767.53;4883240;29;20099;-92
2021/12/07 07:06:53;;;;;;;42.80;13.85;;;;;;;0.34;100.00;100794.28;4867287;29;20051;-91
2021/12/07 07:09:20;;;;;;;41.38;12.20;;;;;;;-0.22;100.00;100713.44;4882812;29;20060;-91
2021/12/07 07:11:48;;;;;;;42.08;13.32;;;;;;;-0.02;100.00;100754.16;4882682;29;20073;-92
2021/12/07 07:14:16;;;;;;;44.97;13.93;;;;;;;0.06;100.00;100756.94;4881044;29;20100;-92
2021/12/07 07:16:42;;;;;;;46.65;14.98;;;;;;;-0.19;100.00;100721.13;4883033;29;20131;-92
2021/12/07 07:19:08;;;;;;;46.83;15.18;;;;;;;-0.08;100.00;100731.56;4883196;29;20044;-92
2021/12/07 07:22:06;;;;;;;56.78;14.95;;;;;;;-0.16;100.00;100712.84;4882626;29;20048;-91
2021/12/07 07:24:32;;;;;;;49.03;13.85;;;;;;;0.49;100.00;100826.63;4885504;29;20438;-92
2021/12/07 07:26:59;;;;;;;43.50;15.40;;;;;;;-0.17;100.00;100723.66;4883415;29;20428;-92
2021/12/07 07:29:25;;;;;;;45.25;14.02;;;;;;;-0.10;100.00;100743.41;4866984;29;20047;-91
2021/12/07 07:31:51;;;;;;;38.40;14.60;;;;;;;0.12;100.00;100785.69;4899697;29;20032;-90
2021/12/07 07:34:17;;;;;;;51.97;14.23;;;;;;;0.23;100.00;100791.81;4882603;29;20397;-91
2021/12/07 07:36:43;;;;;;;40.78;15.05;;;;;;;-0.08;100.00;100741.41;4882011;29;20100;-90
2021/12/07 07:39:09;;;;;;;46.92;14.93;;;;;;;0.00;100.00;100746.88;4882025;29;20040;-91
2021/12/07 07:41:35;;;;;;;41.13;14.88;;;;;;;0.03;100.00;100743.03;4882272;29;20470;-90
2021/12/07 07:44:01;;;;;;;43.17;14.73;;;;;;;0.08;100.00;100749.59;4898892;29;20040;-90
2021/12/07 07:46:29;;;;;;;45.38;14.77;;;;;;;0.55;100.00;100807.34;4881935;29;20099;-91
2021/12/07 07:48:55;;;;;;;45.70;14.23;;;;;;;0.85;100.00;100846.19;4882162;29;20470;-91
2021/12/07 07:51:23;;;;;;;41.03;14.80;;;;;;;0.82;100.00;100841.16;4882045;29;20056;-90
2021/12/07 07:53:56;;;;;;;41.15;13.30;;;;;;;0.58;100.00;100791.00;4866310;29;20080;-90
2021/12/07 07:56:22;;;;;;;55.33;14.18;;;;;;;0.16;100.00;100725.69;4881918;29;20036;-91
2021/12/07 07:58:51;;;;;;;42.20;13.57;;;;;;;0.18;100.00;100717.53;4881776;29;20033;-91
2021/12/07 08:01:16;;;;;;;46.88;12.90;;;;;;;0.19;100.00;100719.19;4881902;29;20036;-91
2021/12/07 08:03:42;;;;;;;50.50;13.82;;;;;;;0.22;100.00;100734.06;4881587;29;20035;-91
2021/12/07 08:06:08;;;;;;;45.10;14.00;;;;;;;0.52;100.00;100786.28;4866558;29;20064;-91
2021/12/07 08:08:34;;;;;;;41.10;12.93;;;;;;;0.38;100.00;100757.44;4881846;29;20028;-90
2021/12/07 08:11:01;;;;;;;47.30;12.73;;;;;;;0.47;100.00;100778.72;4881625;29;20032;-90
2021/12/07 08:13:26;;;;;;;39.50;12.98;;;;;;;0.83;100.00;100840.16;4866213;29;20044;-91
2021/12/07 08:16:06;;;;;;;;;;;;;;;;;;;;;
2021/12/07 08:18:34;;;;;;;32.67;11.77;;;;;;;0.21;100.00;100751.94;4882989;29;20063;-91
2021/12/07 08:21:00;;;;;;;39.28;12.63;;;;;;;0.58;100.00;100815.03;4881794;29;20037;-90
2021/12/07 08:23:28;;;;;;;36.42;11.75;;;;;;;0.49;100.00;100797.28;4881705;29;20108;-91
2021/12/07 08:25:54;;;;;;;35.92;11.88;;;;;;;0.23;100.00;100770.47;4881764;29;20163;-91
2021/12/07 08:28:20;;;;;;;40.65;10.93;;;;;;;0.55;100.00;100830.50;4897490;29;20111;-91
2021/12/07 08:30:48;;;;;;;38.47;10.93;;;;;;;0.65;100.00;100840.16;4897492;29;20553;-91
2021/12/07 08:33:14;;;;;;;35.85;10.65;;;;;;;0.15;100.00;100771.22;4882213;29;20079;-91
2021/12/07 08:35:47;;;;;;;30.17;10.18;;;;;;;0.17;100.00;100771.88;4881903;29;20064;-91
2021/12/07 08:38:12;;;;;;;34.92;9.88;;;;;;;0.21;100.00;100785.75;4898203;29;20072;-91
2021/12/07 08:40:39;;;;;;;28.35;9.48;;;;;;;0.19;100.00;100774.41;4881639;29;20064;-91
2021/12/07 08:43:12;;;;;;;30.98;8.98;;;;;;;0.21;100.00;100789.28;4881042;29;20442;-91
2021/12/07 08:45:43;;;;;;;30.75;9.35;;;;;;;0.26;100.00;100797.66;4881621;29;20040;-91
2021/12/07 08:48:14;;;;;;;26.73;8.13;;;;;;;0.12;100.00;100769.66;4866063;29;20043;-91
2021/12/07 08:50:42;;;;;;;31.30;8.85;;;;;;;0.07;100.00;100752.44;4877417;29;20053;-91
2021/12/07 08:53:14;;;;;;;24.73;8.80;;;;;;;0.81;100.00;100870.69;4878417;29;20049;-90
2021/12/07 09:01:13;;;;;;;25.00;8.13;;;;;;;0.64;100.00;100809.09;4876544;29;20045;-90
2021/12/07 09:03:42;;;;;;;26.98;8.90;;;;;;;0.40;100.00;100747.44;4905232;29;20106;-91
2021/12/07 09:06:08;;;;;;;24.70;8.43;;;;;;;0.37;100.00;100742.41;4915431;29;20028;-90
2021/12/07 09:08:35;;;;;;;29.38;8.50;;;;;;;0.35;100.00;100729.22;4899574;29;20170;-91
2021/12/07 09:11:10;;;;;;;26.05;8.82;;;;;;;0.43;100.00;100729.31;4915210;29;20401;-91
2021/12/07 09:13:36;;;;;;;29.77;9.55;;;;;;;0.85;100.00;100791.94;4899554;29;20044;-90
2021/12/07 09:16:05;;;;;;;26.02;8.13;;;;;;;0.62;100.00;100755.00;4915838;29;20028;-91
2021/12/07 09:18:31;;;;;;;26.77;8.88;;;;;;;0.85;100.00;100786.59;4913926;29;20557;-90
2021/12/07 09:20:59;;;;;;;28.60;9.02;;;;;;;0.51;100.00;100742.72;4919649;29;20127;-91
2021/12/07 09:23:25;;;;;;;30.33;8.95;;;;;;;0.82;100.00;100784.22;4922099;29;20040;-91
2021/12/07 09:25:52;;;;;;;25.45;8.25;;;;;;;1.07;100.00;100827.19;4918720;29;20080;-90
2021/12/07 09:28:18;;;;;;;28.80;8.80;;;;;;;0.60;100.00;100732.94;4900213;29;20048;-90
2021/12/07 09:30:51;;;;;;;22.83;8.35;;;;;;;0.85;100.00;100775.91;4915430;29;20025;-91
2021/12/07 09:33:18;;;;;;;27.20;7.90;;;;;;;1.08;100.00;100799.47;4914758;29;20035;-90
2021/12/07 09:36:04;;;;;;;23.27;8.13;;;;;;;1.11;100.00;100805.34;4914054;29;20032;-90
2021/12/07 09:38:33;;;;;;;31.88;8.00;;;;;;;0.70;100.00;100728.38;4905275;29;20494;-91
2021/12/07 09:41:02;;;;;;;25.00;7.90;;;;;;;0.79;100.00;100739.13;4918328;29;20351;-90
2021/12/07 09:43:31;;;;;;;19.45;7.50;;;;;;;0.86;100.00;100730.34;4917963;29;20035;-90
2021/12/07 09:45:57;;;;;;;27.10;8.32;;;;;;;0.82;100.00;100720.94;4918353;29;20486;-90
2021/12/07 09:48:25;;;;;;;22.35;7.85;;;;;;;1.15;100.00;100769.31;4917759;29;20063;-88
2021/12/07 09:50:54;;;;;;;30.08;7.38;;;;;;;1.20;100.00;100772.34;4917007;29;20062;-86
2021/12/07 09:53:21;;;;;;;23.15;7.57;;;;;;;1.27;100.00;100777.06;4917001;29;20446;-86
2021/12/07 09:55:48;;;;;;;25.13;7.90;;;;;;;1.48;100.00;100803.47;4917702;29;20450;-86
2021/12/07 09:58:18;;;;;;;21.00;6.93;;;;;;;1.02;100.00;100726.13;4917169;29;20481;-88
2021/12/07 10:00:46;;;;;;;25.70;7.13;;;;;;;1.35;100.00;100755.75;4917644;29;20040;-87
2021/12/07 10:03:12;;;;;;;23.02;7.22;;;;;;;1.33;100.00;100747.03;4917196;29;20028;-87
2021/12/07 10:05:40;;;;;;;22.92;7.50;;;;;;;1.39;100.00;100759.78;4916960;29;20043;-87
2021/12/07 10:08:11;;;;;;;24.63;7.13;;;;;;;1.32;100.00;100732.84;4917025;29;20036;-88
2021/12/07 10:10:41;;;;;;;17.05;6.05;;;;;;;1.33;100.00;100729.16;4917703;29;20032;-88
2021/12/07 10:13:08;;;;;;;25.75;6.75;;;;;;;1.81;100.00;100787.59;4918043;29;20028;-87
2021/12/07 10:15:34;;;;;;;25.48;6.88;;;;;;;1.38;100.00;100713.47;4917898;29;20031;-88
2021/12/07 10:18:11;;;;;;;25.75;6.95;;;;;;;2.10;100.00;100814.00;4916922;29;20506;-87
2021/12/07 10:20:39;;;;;;;24.00;6.28;;;;;;;2.17;100.00;100807.00;4917036;29;20115;-88
2021/12/07 10:23:32;;;;;;;17.58;6.32;;;;;;;2.15;100.00;100808.16;4915890;29;20043;-88
2021/12/07 10:26:14;;;;;;;22.73;6.30;;;;;;;1.80;100.00;100746.63;4918475;29;20024;-88
2021/12/07 10:28:51;;;;;;;23.20;7.00;;;;;;;2.33;100.00;100808.88;4917832;29;20035;-88
2021/12/07 10:31:39;;;;;;;22.85;6.43;;;;;;;1.78;100.00;100711.16;4917386;29;20115;-90
2021/12/07 10:34:11;;;;;;;21.27;6.30;;;;;;;1.68;100.00;100695.25;4918872;29;20063;-91
2021/12/07 10:36:48;;;;;;;;;;;;;;;2.45;100.00;100799.56;4918012;29;20044;-90
2021/12/07 10:39:26;;;;;;;26.55;6.20;;;;;;;2.54;100.00;100800.41;4917537;29;19915;-90
2021/12/07 10:42:04;;;;;;;22.10;6.28;;;;;;;1.81;100.00;100675.22;4917483;29;20036;-90
2021/12/07 10:44:40;;;;;;;18.25;5.50;;;;;;;2.24;100.00;100732.22;4917104;29;20508;-90
2021/12/07 10:47:25;;;;;;;21.60;6.22;;;;;;;2.20;100.00;100701.41;4917479;29;20370;-90
2021/12/07 10:50:04;;;;;;;21.77;6.07;;;;;;;2.68;100.00;100774.81;4918491;29;20032;-91
2021/12/07 10:52:48;;;;;;;21.42;6.30;;;;;;;2.06;100.00;100660.91;4918880;29;20048;-90
2021/12/07 10:55:26;;;;;;;20.65;5.65;;;;;;;2.80;100.00;100776.19;4917239;29;20047;-90
2021/12/07 10:57:57;;;;;;;19.58;5.72;;;;;;;2.46;100.00;100685.22;4917377;29;20036;-90
2021/12/07 11:00:42;;;;;;;17.60;6.03;;;;;;;2.42;100.00;100660.63;4917536;29;20032;-90
2021/12/07 11:03:27;;;;;;;21.67;6.35;;;;;;;3.06;100.00;100751.06;4916934;29;20397;-90
2021/12/07 11:06:05;;;;;;;23.45;6.00;;;;;;;2.54;100.00;100650.44;4916786;29;20339;-91
2021/12/07 11:08:33;;;;;;;24.05;6.20;;;;;;;2.74;100.00;100645.53;4916608;29;20036;-90
2021/12/07 11:10:58;;;;;;;20.10;5.55;;;;;;;3.15;100.00;100687.53;4916948;29;20076;-90
2021/12/07 11:13:34;;;;;;;22.63;6.20;;;;;;;2.88;100.00;100624.41;4918201;29;20028;-91
2021/12/07 11:16:06;;;;;;;22.02;5.55;;;;;;;2.95;100.00;100625.41;4917805;29;20138;-90
2021/12/07 11:18:36;;;;;;;23.08;6.20;;;;;;;3.67;100.00;100713.03;4918092;29;20024;-91
2021/12/07 11:21:26;;;;;;;20.30;6.20;;;;;;;3.57;100.00;100682.88;4916946;29;20148;-91
2021/12/07 11:23:55;;;;;;;28.55;6.70;;;;;;;3.58;100.00;100665.78;4911643;29;20048;-91
2021/12/07 11:31:45;;;;;;;17.90;6.30;;;;;;;4.12;99.28;100694.53;4918610;29;20115;-91
2021/12/07 11:34:16;;;;;;;21.40;6.85;;;;;;;4.30;97.37;100703.16;4916525;29;20028;-90
2021/12/07 11:36:57;;;;;;;17.90;7.55;;;;;;;4.93;96.82;100595.44;4915812;29;20489;-89
2021/12/07 11:39:22;;;;;;;23.10;6.65;;;;;;;7.29;90.30;100689.34;4916029;29;20493;-89
2021/12/07 11:42:01;;;;;;;18.02;6.18;;;;;;;8.25;80.09;100589.38;4915801;29;20032;-89
2021/12/07 11:44:27;;;;;;;20.33;6.35;;;;;;;9.47;76.09;100648.59;4913330;29;20039;-89
2021/12/07 11:46:53;;;;;;;16.92;5.50;;;;;;;10.60;72.89;100683.50;4895567;29;20041;-90
2021/12/07 11:49:22;;;;;;;16.92;5.05;;;;;;;10.86;69.78;100668.91;4881560;29;20059;-89
2021/12/07 11:51:51;;;;;;;15.77;4.65;;;;;;;11.17;68.79;100627.28;4911218;29;20079;-90
2021/12/07 11:54:22;;;;;;;13.45;4.68;;;;;;;11.38;66.41;100663.19;4915624;29;20051;-90
2021/12/07 11:56:48;;;;;;;15.05;4.45;;;;;;;11.47;65.53;100607.53;4915686;29;20105;-89
2021/12/07 11:59:15;;;;;;;13.32;4.65;;;;;;;11.91;62.98;100653.59;4915000;29;20127;-89
2021/12/07 12:01:42;;;;;;;13.20;4.63;;;;;;;11.56;62.85;100613.50;4915541;29;20031;-89
2021/12/07 12:04:08;;;;;;;15.00;4.07;;;;;;;11.79;62.73;100544.81;4915314;29;20032;-89
2021/12/07 12:06:37;;;;;;;15.90;4.47;;;;;;;12.90;59.71;100589.75;4915659;29;20028;-89
2021/12/07 12:09:06;;;;;;;12.27;4.00;;;;;;;12.87;57.68;100558.38;4899847;29;20759;-89
2021/12/07 12:11:42;;;;;;;13.02;3.75;;;;;;;13.85;57.83;100629.41;4915621;29;20059;-89
2021/12/07 12:14:22;;;;;;;12.70;4.32;;;;;;;13.97;56.62;100626.63;4933326;29;20485;-89
2021/12/07 12:17:13;;;;;;;15.05;4.25;;;;;;;13.97;62.41;100617.63;4919579;29;20035;-89
2021/12/07 12:20:04;;;;;;;13.35;3.65;;;;;;;14.16;62.04;100619.09;4918025;29;20055;-87
2021/12/07 12:22:48;;;;;;;14.60;4.03;;;;;;;14.12;55.15;100615.19;4935437;29;20031;-87
2021/12/07 12:25:18;;;;;;;11.70;3.72;;;;;;;14.18;53.48;100562.34;4918060;29;20047;-88
2021/12/07 12:27:49;;;;;;;11.15;3.50;;;;;;;13.91;55.59;100597.63;4917861;29;20031;-84
2021/12/07 12:30:20;;;;;;;13.75;3.50;;;;;;;13.59;54.65;100578.19;4918274;29;20047;-85
2021/12/07 12:32:50;;;;;;;7.22;3.05;;;;;;;13.51;53.98;100549.41;4918347;29;20027;-87
2021/12/07 12:35:16;;;;;;;15.20;3.50;;;;;;;13.51;55.24;100527.59;4934893;29;20066;-87
2021/12/07 12:37:48;;;;;;;9.27;2.88;;;;;;;13.59;55.54;100538.09;4886636;29;20059;-88
2021/12/07 12:40:30;;;;;;;10.60;3.13;;;;;;;13.61;59.39;100576.03;4918089;29;20537;-86
2021/12/07 12:42:57;;;;;;;9.37;3.33;;;;;;;13.67;53.50;100547.78;4917963;29;20028;-87
2021/12/07 12:45:37;;;;;;;11.13;3.20;;;;;;;14.01;53.41;100569.69;4916999;29;20032;-87
2021/12/07 12:48:10;;;;;;;11.32;3.00;;;;;;;13.63;53.50;100550.19;4918039;29;20047;-88
2021/12/07 12:50:50;;;;;;;11.70;3.15;;;;;;;12.91;57.87;100542.41;4917886;29;20067;-88
2021/12/07 12:53:26;;;;;;;12.45;2.85;;;;;;;12.20;55.66;100531.50;4934997;29;20032;-88
2021/12/07 12:56:07;;;;;;;11.55;3.13;;;;;;;11.62;58.22;100468.56;4918099;29;20046;-88
2021/12/07 12:58:42;;;;;;;12.55;3.40;;;;;;;11.47;58.50;100506.16;4934834;29;20032;-87
2021/12/07 13:01:30;;;;;;;13.75;3.13;;;;;;;11.39;62.07;100507.31;4934530;29;20032;-87
2021/12/07 13:04:07;;;;;;;11.23;3.10;;;;;;;10.93;59.45;100482.41;4917592;29;20028;-87
2021/12/07 13:06:33;;;;;;;6.72;2.55;;;;;;;10.60;57.86;100480.91;4917834;29;20031;-87
2021/12/07 13:09:27;;;;;;;10.15;2.55;;;;;;;10.50;63.36;100462.41;4917602;29;20109;-87
2021/12/07 13:12:15;;;;;;;10.95;2.95;;;;;;;10.17;63.19;100428.28;4920665;29;20042;-87
2021/12/07 13:14:49;;;;;;;9.82;2.85;;;;;;;10.57;59.47;100429.81;4921288;29;20425;-87
2021/12/07 13:17:25;;;;;;;11.85;2.67;;;;;;;10.82;59.81;100426.16;4938706;29;20491;-86
2021/12/07 13:20:38;;;;;;;12.50;2.78;;;;;;;11.10;62.51;100450.06;4938082;29;20497;-87
2021/12/07 13:23:13;;;;;;;15.25;2.95;;;;;;;10.91;60.13;100434.81;4919878;29;20119;-87